sensor_id;sensor_type;location;lat;lon;timestamp;P1;durP1;ratioP1;P2;durP2;ratioP2
20067;SDS011;10194;50.824;7.134;2022-07-25T00:00:33;11.63;;;8.05;;
20067;SDS011;10194;50.824;7.134;2022-07-25T00:02:59;11.60;;;7.68;;
20067;SDS011;10194;50.824;7.134;2022-07-25T00:05:26;9.18;;;7.55;;
20067;SDS011;10194;50.824;7.134;2022-07-25T00:07:52;9.20;;;7.63;;
20067;SDS011;10194;50.824;7.134;2022-07-25T00:10:17;9.98;;;7.78;;
20067;SDS011;10194;50.824;7.134;2022-07-25T00:12:44;11.07;;;7.72;;
20067;SDS011;10194;50.824;7.134;2022-07-25T00:15:10;10.15;;;7.47;;
20067;SDS011;10194;50.824;7.134;2022-07-25T00:17:37;11.52;;;8.50;;
20067;SDS011;10194;50.824;7.134;2022-07-25T00:20:03;11.57;;;8.60;;
20067;SDS011;10194;50.824;7.134;2022-07-25T00:22:30;11.10;;;8.30;;
20067;SDS011;10194;50.824;7.134;2022-07-25T00:24:56;11.50;;;8.52;;
20067;SDS011;10194;50.824;7.134;2022-07-25T00:27:22;11.13;;;8.77;;
20067;SDS011;10194;50.824;7.134;2022-07-25T00:29:47;10.75;;;8.65;;
20067;SDS011;10194;50.824;7.134;2022-07-25T00:32:13;10.40;;;8.20;;
20067;SDS011;10194;50.824;7.134;2022-07-25T00:34:39;13.02;;;9.32;;
20067;SDS011;10194;50.824;7.134;2022-07-25T00:37:05;12.18;;;8.85;;
20067;SDS011;10194;50.824;7.134;2022-07-25T00:39:31;12.35;;;8.60;;
20067;SDS011;10194;50.824;7.134;2022-07-25T00:41:57;11.13;;;8.68;;
20067;SDS011;10194;50.824;7.134;2022-07-25T00:44:26;15.48;;;8.13;;
20067;SDS011;10194;50.824;7.134;2022-07-25T00:46:54;12.65;;;7.72;;
20067;SDS011;10194;50.824;7.134;2022-07-25T00:49:22;9.90;;;8.10;;
20067;SDS011;10194;50.824;7.134;2022-07-25T00:51:48;10.98;;;8.40;;
20067;SDS011;10194;50.824;7.134;2022-07-25T00:54:15;12.80;;;8.00;;
20067;SDS011;10194;50.824;7.134;2022-07-25T00:56:42;11.18;;;7.25;;
20067;SDS011;10194;50.824;7.134;2022-07-25T00:59:08;13.25;;;8.55;;
20067;SDS011;10194;50.824;7.134;2022-07-25T01:01:35;9.48;;;7.22;;
20067;SDS011;10194;50.824;7.134;2022-07-25T01:04:02;8.95;;;6.97;;
20067;SDS011;10194;50.824;7.134;2022-07-25T01:06:29;9.13;;;7.35;;
20067;SDS011;10194;50.824;7.134;2022-07-25T01:08:55;8.82;;;7.30;;
20067;SDS011;10194;50.824;7.134;2022-07-25T01:11:21;11.10;;;7.68;;
20067;SDS011;10194;50.824;7.134;2022-07-25T01:13:48;9.10;;;7.30;;
20067;SDS011;10194;50.824;7.134;2022-07-25T01:16:14;9.52;;;7.75;;
20067;SDS011;10194;50.824;7.134;2022-07-25T01:18:40;11.02;;;7.90;;
20067;SDS011;10194;50.824;7.134;2022-07-25T01:21:06;8.85;;;7.10;;
20067;SDS011;10194;50.824;7.134;2022-07-25T01:23:32;9.95;;;7.57;;
20067;SDS011;10194;50.824;7.134;2022-07-25T01:25:58;11.55;;;8.07;;
20067;SDS011;10194;50.824;7.134;2022-07-25T01:28:24;12.73;;;7.93;;
20067;SDS011;10194;50.824;7.134;2022-07-25T01:30:50;11.23;;;7.97;;
20067;SDS011;10194;50.824;7.134;2022-07-25T01:33:16;10.20;;;7.82;;
20067;SDS011;10194;50.824;7.134;2022-07-25T01:35:43;10.63;;;7.15;;
20067;SDS011;10194;50.824;7.134;2022-07-25T01:38:11;12.75;;;7.72;;
20067;SDS011;10194;50.824;7.134;2022-07-25T01:40:37;8.88;;;7.07;;
20067;SDS011;10194;50.824;7.134;2022-07-25T01:43:04;10.77;;;7.22;;
20067;SDS011;10194;50.824;7.134;2022-07-25T01:45:30;10.35;;;7.40;;
20067;SDS011;10194;50.824;7.134;2022-07-25T01:47:56;15.52;;;7.45;;
20067;SDS011;10194;50.824;7.134;2022-07-25T01:50:22;9.73;;;7.30;;
20067;SDS011;10194;50.824;7.134;2022-07-25T01:52:48;11.55;;;7.88;;
20067;SDS011;10194;50.824;7.134;2022-07-25T01:55:14;8.25;;;7.30;;
20067;SDS011;10194;50.824;7.134;2022-07-25T01:57:40;10.27;;;7.00;;
20067;SDS011;10194;50.824;7.134;2022-07-25T02:00:07;12.50;;;7.40;;
20067;SDS011;10194;50.824;7.134;2022-07-25T02:02:37;10.35;;;7.60;;
20067;SDS011;10194;50.824;7.134;2022-07-25T02:05:06;9.05;;;7.40;;
20067;SDS011;10194;50.824;7.134;2022-07-25T02:07:33;9.15;;;7.25;;
20067;SDS011;10194;50.824;7.134;2022-07-25T02:10:00;9.05;;;7.15;;
20067;SDS011;10194;50.824;7.134;2022-07-25T02:12:26;10.23;;;6.97;;
20067;SDS011;10194;50.824;7.134;2022-07-25T02:14:52;9.70;;;7.55;;
20067;SDS011;10194;50.824;7.134;2022-07-25T02:17:17;9.63;;;7.63;;
20067;SDS011;10194;50.824;7.134;2022-07-25T02:19:43;8.85;;;7.70;;
20067;SDS011;10194;50.824;7.134;2022-07-25T02:22:09;11.45;;;8.52;;
20067;SDS011;10194;50.824;7.134;2022-07-25T02:24:35;10.13;;;7.50;;
20067;SDS011;10194;50.824;7.134;2022-07-25T02:27:04;10.82;;;7.57;;
20067;SDS011;10194;50.824;7.134;2022-07-25T02:29:30;9.02;;;7.05;;
20067;SDS011;10194;50.824;7.134;2022-07-25T02:31:56;10.10;;;7.30;;
20067;SDS011;10194;50.824;7.134;2022-07-25T02:34:22;9.07;;;7.53;;
20067;SDS011;10194;50.824;7.134;2022-07-25T02:36:48;10.35;;;7.50;;
20067;SDS011;10194;50.824;7.134;2022-07-25T02:39:14;12.60;;;8.00;;
20067;SDS011;10194;50.824;7.134;2022-07-25T02:41:40;9.90;;;7.50;;
20067;SDS011;10194;50.824;7.134;2022-07-25T02:44:07;10.13;;;7.38;;
20067;SDS011;10194;50.824;7.134;2022-07-25T02:46:32;10.82;;;7.35;;
20067;SDS011;10194;50.824;7.134;2022-07-25T02:48:58;8.93;;;7.15;;
20067;SDS011;10194;50.824;7.134;2022-07-25T02:51:24;11.20;;;8.52;;
20067;SDS011;10194;50.824;7.134;2022-07-25T02:53:50;9.05;;;7.40;;
20067;SDS011;10194;50.824;7.134;2022-07-25T02:56:16;9.52;;;7.88;;
20067;SDS011;10194;50.824;7.134;2022-07-25T02:58:42;9.93;;;7.45;;
20067;SDS011;10194;50.824;7.134;2022-07-25T03:01:09;11.15;;;7.90;;
20067;SDS011;10194;50.824;7.134;2022-07-25T03:03:35;10.80;;;7.85;;
20067;SDS011;10194;50.824;7.134;2022-07-25T03:06:00;10.48;;;8.23;;
20067;SDS011;10194;50.824;7.134;2022-07-25T03:08:26;9.98;;;7.60;;
20067;SDS011;10194;50.824;7.134;2022-07-25T03:10:52;11.15;;;7.80;;
20067;SDS011;10194;50.824;7.134;2022-07-25T03:13:18;10.82;;;8.10;;
20067;SDS011;10194;50.824;7.134;2022-07-25T03:15:44;8.68;;;7.15;;
20067;SDS011;10194;50.824;7.134;2022-07-25T03:18:10;11.07;;;7.85;;
20067;SDS011;10194;50.824;7.134;2022-07-25T03:20:36;10.65;;;7.72;;
20067;SDS011;10194;50.824;7.134;2022-07-25T03:23:02;10.95;;;7.78;;
20067;SDS011;10194;50.824;7.134;2022-07-25T03:25:28;9.80;;;7.30;;
20067;SDS011;10194;50.824;7.134;2022-07-25T03:27:54;9.35;;;7.30;;
20067;SDS011;10194;50.824;7.134;2022-07-25T03:30:20;10.75;;;8.40;;
20067;SDS011;10194;50.824;7.134;2022-07-25T03:32:46;12.48;;;7.07;;
20067;SDS011;10194;50.824;7.134;2022-07-25T03:35:13;11.07;;;7.15;;
20067;SDS011;10194;50.824;7.134;2022-07-25T03:37:39;8.80;;;7.40;;
20067;SDS011;10194;50.824;7.134;2022-07-25T03:40:05;10.98;;;7.72;;
20067;SDS011;10194;50.824;7.134;2022-07-25T03:42:32;11.52;;;7.10;;
20067;SDS011;10194;50.824;7.134;2022-07-25T03:44:58;12.73;;;7.70;;
20067;SDS011;10194;50.824;7.134;2022-07-25T03:47:23;11.65;;;8.00;;
20067;SDS011;10194;50.824;7.134;2022-07-25T03:49:49;10.15;;;7.45;;
20067;SDS011;10194;50.824;7.134;2022-07-25T03:52:15;9.85;;;7.50;;
20067;SDS011;10194;50.824;7.134;2022-07-25T03:54:41;10.88;;;8.35;;
20067;SDS011;10194;50.824;7.134;2022-07-25T03:57:07;10.30;;;7.70;;
20067;SDS011;10194;50.824;7.134;2022-07-25T03:59:33;13.45;;;8.43;;
20067;SDS011;10194;50.824;7.134;2022-07-25T04:01:59;10.63;;;7.82;;
20067;SDS011;10194;50.824;7.134;2022-07-25T04:04:24;10.18;;;7.80;;
20067;SDS011;10194;50.824;7.134;2022-07-25T04:06:50;12.40;;;8.40;;
20067;SDS011;10194;50.824;7.134;2022-07-25T04:09:16;11.75;;;8.07;;
20067;SDS011;10194;50.824;7.134;2022-07-25T04:11:42;10.38;;;8.05;;
20067;SDS011;10194;50.824;7.134;2022-07-25T04:14:08;11.32;;;8.70;;
20067;SDS011;10194;50.824;7.134;2022-07-25T04:16:34;10.25;;;7.68;;
20067;SDS011;10194;50.824;7.134;2022-07-25T04:19:00;11.55;;;7.97;;
20067;SDS011;10194;50.824;7.134;2022-07-25T04:21:26;9.88;;;7.82;;
20067;SDS011;10194;50.824;7.134;2022-07-25T04:23:52;10.30;;;7.78;;
20067;SDS011;10194;50.824;7.134;2022-07-25T04:26:18;11.30;;;8.05;;
20067;SDS011;10194;50.824;7.134;2022-07-25T04:28:44;9.80;;;7.75;;
20067;SDS011;10194;50.824;7.134;2022-07-25T04:31:10;10.02;;;7.93;;
20067;SDS011;10194;50.824;7.134;2022-07-25T04:33:36;13.25;;;7.80;;
20067;SDS011;10194;50.824;7.134;2022-07-25T04:36:03;11.70;;;7.68;;
20067;SDS011;10194;50.824;7.134;2022-07-25T04:38:29;9.05;;;6.95;;
20067;SDS011;10194;50.824;7.134;2022-07-25T04:40:55;9.10;;;7.25;;
20067;SDS011;10194;50.824;7.134;2022-07-25T04:43:21;10.23;;;7.88;;
20067;SDS011;10194;50.824;7.134;2022-07-25T04:45:47;11.07;;;7.78;;
20067;SDS011;10194;50.824;7.134;2022-07-25T04:48:12;9.18;;;7.43;;
20067;SDS011;10194;50.824;7.134;2022-07-25T04:50:38;11.38;;;7.78;;
20067;SDS011;10194;50.824;7.134;2022-07-25T04:53:04;12.25;;;7.53;;
20067;SDS011;10194;50.824;7.134;2022-07-25T04:55:30;9.40;;;7.68;;
20067;SDS011;10194;50.824;7.134;2022-07-25T04:57:57;9.77;;;7.38;;
20067;SDS011;10194;50.824;7.134;2022-07-25T05:00:24;11.85;;;8.02;;
20067;SDS011;10194;50.824;7.134;2022-07-25T05:02:50;9.35;;;7.43;;
20067;SDS011;10194;50.824;7.134;2022-07-25T05:05:16;10.57;;;7.32;;
20067;SDS011;10194;50.824;7.134;2022-07-25T05:07:42;11.00;;;7.57;;
20067;SDS011;10194;50.824;7.134;2022-07-25T05:10:08;11.15;;;7.63;;
20067;SDS011;10194;50.824;7.134;2022-07-25T05:12:34;9.93;;;7.55;;
20067;SDS011;10194;50.824;7.134;2022-07-25T05:15:01;11.60;;;7.53;;
20067;SDS011;10194;50.824;7.134;2022-07-25T05:17:28;10.27;;;7.68;;
20067;SDS011;10194;50.824;7.134;2022-07-25T05:19:55;8.40;;;6.82;;
20067;SDS011;10194;50.824;7.134;2022-07-25T05:22:22;9.20;;;7.55;;
20067;SDS011;10194;50.824;7.134;2022-07-25T05:24:48;9.15;;;7.18;;
20067;SDS011;10194;50.824;7.134;2022-07-25T05:27:14;8.77;;;6.38;;
20067;SDS011;10194;50.824;7.134;2022-07-25T05:29:40;8.60;;;7.00;;
20067;SDS011;10194;50.824;7.134;2022-07-25T05:32:06;10.23;;;7.22;;
20067;SDS011;10194;50.824;7.134;2022-07-25T05:34:32;14.20;;;7.30;;
20067;SDS011;10194;50.824;7.134;2022-07-25T05:36:57;10.18;;;7.35;;
20067;SDS011;10194;50.824;7.134;2022-07-25T05:39:23;8.90;;;7.28;;
20067;SDS011;10194;50.824;7.134;2022-07-25T05:41:49;9.57;;;6.75;;
20067;SDS011;10194;50.824;7.134;2022-07-25T05:44:15;10.43;;;6.72;;
20067;SDS011;10194;50.824;7.134;2022-07-25T05:46:40;7.78;;;6.70;;
20067;SDS011;10194;50.824;7.134;2022-07-25T05:49:06;10.45;;;7.32;;
20067;SDS011;10194;50.824;7.134;2022-07-25T05:51:32;9.27;;;6.95;;
20067;SDS011;10194;50.824;7.134;2022-07-25T05:53:58;11.73;;;6.78;;
20067;SDS011;10194;50.824;7.134;2022-07-25T05:56:24;11.25;;;6.93;;
20067;SDS011;10194;50.824;7.134;2022-07-25T05:58:50;8.20;;;6.90;;
20067;SDS011;10194;50.824;7.134;2022-07-25T06:01:16;10.55;;;7.20;;
20067;SDS011;10194;50.824;7.134;2022-07-25T06:03:42;7.47;;;6.55;;
20067;SDS011;10194;50.824;7.134;2022-07-25T06:06:08;9.10;;;6.80;;
20067;SDS011;10194;50.824;7.134;2022-07-25T06:08:35;8.60;;;7.00;;
20067;SDS011;10194;50.824;7.134;2022-07-25T06:11:01;7.75;;;6.53;;
20067;SDS011;10194;50.824;7.134;2022-07-25T06:13:29;10.30;;;7.25;;
20067;SDS011;10194;50.824;7.134;2022-07-25T06:15:55;8.10;;;6.22;;
20067;SDS011;10194;50.824;7.134;2022-07-25T06:18:21;8.25;;;6.70;;
20067;SDS011;10194;50.824;7.134;2022-07-25T06:20:47;8.40;;;6.72;;
20067;SDS011;10194;50.824;7.134;2022-07-25T06:23:13;9.82;;;7.00;;
20067;SDS011;10194;50.824;7.134;2022-07-25T06:25:40;8.27;;;6.40;;
20067;SDS011;10194;50.824;7.134;2022-07-25T06:28:05;11.63;;;6.80;;
20067;SDS011;10194;50.824;7.134;2022-07-25T06:30:31;6.82;;;5.97;;
20067;SDS011;10194;50.824;7.134;2022-07-25T06:32:57;10.93;;;6.75;;
20067;SDS011;10194;50.824;7.134;2022-07-25T06:35:23;7.65;;;6.40;;
20067;SDS011;10194;50.824;7.134;2022-07-25T06:37:49;19.23;;;6.65;;
20067;SDS011;10194;50.824;7.134;2022-07-25T06:40:14;7.40;;;6.47;;
20067;SDS011;10194;50.824;7.134;2022-07-25T06:42:41;9.23;;;6.70;;
20067;SDS011;10194;50.824;7.134;2022-07-25T06:45:11;10.15;;;6.85;;
20067;SDS011;10194;50.824;7.134;2022-07-25T06:47:38;9.18;;;6.75;;
20067;SDS011;10194;50.824;7.134;2022-07-25T06:50:06;14.25;;;6.78;;
20067;SDS011;10194;50.824;7.134;2022-07-25T06:52:35;8.45;;;7.15;;
20067;SDS011;10194;50.824;7.134;2022-07-25T06:55:02;9.07;;;7.05;;
20067;SDS011;10194;50.824;7.134;2022-07-25T06:57:29;10.10;;;6.38;;
20067;SDS011;10194;50.824;7.134;2022-07-25T06:59:55;11.10;;;6.90;;
20067;SDS011;10194;50.824;7.134;2022-07-25T07:02:21;8.40;;;6.43;;
20067;SDS011;10194;50.824;7.134;2022-07-25T07:04:47;9.90;;;6.43;;
20067;SDS011;10194;50.824;7.134;2022-07-25T07:07:13;10.38;;;6.65;;
20067;SDS011;10194;50.824;7.134;2022-07-25T07:09:40;10.32;;;6.57;;
20067;SDS011;10194;50.824;7.134;2022-07-25T07:12:07;7.68;;;6.50;;
20067;SDS011;10194;50.824;7.134;2022-07-25T07:14:33;6.68;;;6.07;;
20067;SDS011;10194;50.824;7.134;2022-07-25T07:17:01;7.63;;;6.82;;
20067;SDS011;10194;50.824;7.134;2022-07-25T07:19:28;9.20;;;6.78;;
20067;SDS011;10194;50.824;7.134;2022-07-25T07:21:54;8.02;;;6.72;;
20067;SDS011;10194;50.824;7.134;2022-07-25T07:24:20;8.88;;;6.40;;
20067;SDS011;10194;50.824;7.134;2022-07-25T07:26:46;8.95;;;7.10;;
20067;SDS011;10194;50.824;7.134;2022-07-25T07:29:11;7.65;;;6.70;;
20067;SDS011;10194;50.824;7.134;2022-07-25T07:31:37;7.28;;;6.50;;
20067;SDS011;10194;50.824;7.134;2022-07-25T07:34:03;8.77;;;7.10;;
20067;SDS011;10194;50.824;7.134;2022-07-25T07:36:29;9.07;;;7.70;;
20067;SDS011;10194;50.824;7.134;2022-07-25T07:38:55;7.07;;;6.38;;
20067;SDS011;10194;50.824;7.134;2022-07-25T07:41:20;8.38;;;7.03;;
20067;SDS011;10194;50.824;7.134;2022-07-25T07:43:46;9.50;;;7.45;;
20067;SDS011;10194;50.824;7.134;2022-07-25T07:46:12;9.10;;;7.70;;
20067;SDS011;10194;50.824;7.134;2022-07-25T07:48:38;9.20;;;7.05;;
20067;SDS011;10194;50.824;7.134;2022-07-25T07:51:04;7.55;;;6.35;;
20067;SDS011;10194;50.824;7.134;2022-07-25T07:53:30;8.40;;;6.88;;
20067;SDS011;10194;50.824;7.134;2022-07-25T07:56:15;8.65;;;7.10;;
20067;SDS011;10194;50.824;7.134;2022-07-25T07:58:43;8.27;;;6.90;;
20067;SDS011;10194;50.824;7.134;2022-07-25T08:01:09;8.30;;;7.35;;
20067;SDS011;10194;50.824;7.134;2022-07-25T08:03:35;10.25;;;7.80;;
20067;SDS011;10194;50.824;7.134;2022-07-25T08:06:02;8.73;;;6.95;;
20067;SDS011;10194;50.824;7.134;2022-07-25T08:08:28;7.82;;;7.03;;
20067;SDS011;10194;50.824;7.134;2022-07-25T08:10:55;8.18;;;6.93;;
20067;SDS011;10194;50.824;7.134;2022-07-25T08:13:23;8.02;;;6.93;;
20067;SDS011;10194;50.824;7.134;2022-07-25T08:15:52;7.55;;;6.85;;
20067;SDS011;10194;50.824;7.134;2022-07-25T08:18:24;9.88;;;7.00;;
20067;SDS011;10194;50.824;7.134;2022-07-25T08:20:53;7.30;;;6.55;;
20067;SDS011;10194;50.824;7.134;2022-07-25T08:23:19;7.35;;;6.60;;
20067;SDS011;10194;50.824;7.134;2022-07-25T08:25:46;8.40;;;6.93;;
20067;SDS011;10194;50.824;7.134;2022-07-25T08:28:13;8.88;;;6.88;;
20067;SDS011;10194;50.824;7.134;2022-07-25T08:30:39;7.70;;;6.97;;
20067;SDS011;10194;50.824;7.134;2022-07-25T08:33:07;8.70;;;6.72;;
20067;SDS011;10194;50.824;7.134;2022-07-25T08:35:37;7.70;;;6.90;;
20067;SDS011;10194;50.824;7.134;2022-07-25T08:38:04;8.27;;;7.38;;
20067;SDS011;10194;50.824;7.134;2022-07-25T08:40:31;8.73;;;6.93;;
20067;SDS011;10194;50.824;7.134;2022-07-25T08:42:58;7.95;;;6.80;;
20067;SDS011;10194;50.824;7.134;2022-07-25T08:45:25;9.18;;;7.18;;
20067;SDS011;10194;50.824;7.134;2022-07-25T08:47:52;9.50;;;7.03;;
20067;SDS011;10194;50.824;7.134;2022-07-25T08:50:21;8.93;;;7.38;;
20067;SDS011;10194;50.824;7.134;2022-07-25T08:52:50;8.07;;;6.82;;
20067;SDS011;10194;50.824;7.134;2022-07-25T08:55:18;9.55;;;7.20;;
20067;SDS011;10194;50.824;7.134;2022-07-25T08:57:46;10.20;;;7.50;;
20067;SDS011;10194;50.824;7.134;2022-07-25T09:00:16;11.27;;;7.57;;
20067;SDS011;10194;50.824;7.134;2022-07-25T09:02:58;9.15;;;6.78;;
20067;SDS011;10194;50.824;7.134;2022-07-25T09:05:27;7.82;;;6.80;;
20067;SDS011;10194;50.824;7.134;2022-07-25T09:07:55;8.52;;;7.15;;
20067;SDS011;10194;50.824;7.134;2022-07-25T09:10:23;7.50;;;6.65;;
20067;SDS011;10194;50.824;7.134;2022-07-25T09:15:27;8.73;;;7.03;;
20067;SDS011;10194;50.824;7.134;2022-07-25T09:17:59;9.55;;;7.07;;
20067;SDS011;10194;50.824;7.134;2022-07-25T09:23:13;7.15;;;6.22;;
20067;SDS011;10194;50.824;7.134;2022-07-25T09:25:59;7.18;;;6.47;;
20067;SDS011;10194;50.824;7.134;2022-07-25T09:28:49;8.65;;;7.15;;
20067;SDS011;10194;50.824;7.134;2022-07-25T09:31:18;8.02;;;6.82;;
20067;SDS011;10194;50.824;7.134;2022-07-25T09:33:51;7.53;;;6.57;;
20067;SDS011;10194;50.824;7.134;2022-07-25T09:36:23;7.43;;;6.70;;
20067;SDS011;10194;50.824;7.134;2022-07-25T09:38:52;8.70;;;6.55;;
20067;SDS011;10194;50.824;7.134;2022-07-25T09:41:40;8.00;;;7.20;;
20067;SDS011;10194;50.824;7.134;2022-07-25T09:44:19;7.93;;;6.45;;
20067;SDS011;10194;50.824;7.134;2022-07-25T09:46:53;7.75;;;6.93;;
20067;SDS011;10194;50.824;7.134;2022-07-25T09:49:40;7.40;;;6.70;;
20067;SDS011;10194;50.824;7.134;2022-07-25T09:52:07;7.80;;;6.90;;
20067;SDS011;10194;50.824;7.134;2022-07-25T09:54:37;7.70;;;6.90;;
20067;SDS011;10194;50.824;7.134;2022-07-25T09:57:04;7.28;;;6.57;;
20067;SDS011;10194;50.824;7.134;2022-07-25T09:59:34;7.82;;;6.82;;
20067;SDS011;10194;50.824;7.134;2022-07-25T10:02:23;7.50;;;6.80;;
20067;SDS011;10194;50.824;7.134;2022-07-25T10:06:02;8.40;;;6.90;;
20067;SDS011;10194;50.824;7.134;2022-07-25T10:08:20;8.50;;;6.97;;
20067;SDS011;10194;50.824;7.134;2022-07-25T10:10:47;9.38;;;7.13;;
20067;SDS011;10194;50.824;7.134;2022-07-25T10:13:14;7.15;;;6.40;;
20067;SDS011;10194;50.824;7.134;2022-07-25T10:15:49;8.77;;;7.20;;
20067;SDS011;10194;50.824;7.134;2022-07-25T10:18:17;7.63;;;6.75;;
20067;SDS011;10194;50.824;7.134;2022-07-25T10:20:48;8.77;;;6.97;;
20067;SDS011;10194;50.824;7.134;2022-07-25T10:23:20;9.75;;;6.47;;
20067;SDS011;10194;50.824;7.134;2022-07-25T10:26:03;8.10;;;6.70;;
20067;SDS011;10194;50.824;7.134;2022-07-25T10:28:50;8.18;;;7.10;;
20067;SDS011;10194;50.824;7.134;2022-07-25T10:31:23;7.68;;;6.68;;
20067;SDS011;10194;50.824;7.134;2022-07-25T10:34:02;9.13;;;7.03;;
20067;SDS011;10194;50.824;7.134;2022-07-25T10:36:43;7.53;;;6.72;;
20067;SDS011;10194;50.824;7.134;2022-07-25T10:39:15;8.38;;;6.75;;
20067;SDS011;10194;50.824;7.134;2022-07-25T10:41:52;10.02;;;7.32;;
20067;SDS011;10194;50.824;7.134;2022-07-25T10:44:26;12.63;;;7.65;;
20067;SDS011;10194;50.824;7.134;2022-07-25T10:47:12;10.70;;;7.72;;
20067;SDS011;10194;50.824;7.134;2022-07-25T10:49:41;9.23;;;7.38;;
20067;SDS011;10194;50.824;7.134;2022-07-25T10:52:17;13.45;;;7.18;;
20067;SDS011;10194;50.824;7.134;2022-07-25T10:55:22;10.32;;;7.43;;
20067;SDS011;10194;50.824;7.134;2022-07-25T10:57:57;12.63;;;7.78;;
20067;SDS011;10194;50.824;7.134;2022-07-25T11:00:30;10.02;;;7.55;;
20067;SDS011;10194;50.824;7.134;2022-07-25T11:02:59;11.23;;;6.75;;
20067;SDS011;10194;50.824;7.134;2022-07-25T11:05:25;12.55;;;7.30;;
20067;SDS011;10194;50.824;7.134;2022-07-25T11:07:51;10.65;;;6.75;;
20067;SDS011;10194;50.824;7.134;2022-07-25T11:10:24;11.57;;;7.68;;
20067;SDS011;10194;50.824;7.134;2022-07-25T11:12:52;10.35;;;7.38;;
20067;SDS011;10194;50.824;7.134;2022-07-25T11:15:22;10.95;;;7.10;;
20067;SDS011;10194;50.824;7.134;2022-07-25T11:17:52;10.25;;;7.30;;
20067;SDS011;10194;50.824;7.134;2022-07-25T11:20:18;15.10;;;7.65;;
20067;SDS011;10194;50.824;7.134;2022-07-25T11:22:51;11.82;;;7.07;;
20067;SDS011;10194;50.824;7.134;2022-07-25T11:25:20;11.27;;;7.20;;
20067;SDS011;10194;50.824;7.134;2022-07-25T11:27:56;13.27;;;6.72;;
20067;SDS011;10194;50.824;7.134;2022-07-25T11:30:24;9.07;;;6.95;;
20067;SDS011;10194;50.824;7.134;2022-07-25T11:32:55;9.15;;;7.05;;
20067;SDS011;10194;50.824;7.134;2022-07-25T11:35:29;10.65;;;6.93;;
20067;SDS011;10194;50.824;7.134;2022-07-25T11:37:58;11.00;;;7.35;;
20067;SDS011;10194;50.824;7.134;2022-07-25T11:40:26;12.15;;;7.18;;
20067;SDS011;10194;50.824;7.134;2022-07-25T11:42:56;9.45;;;6.80;;
20067;SDS011;10194;50.824;7.134;2022-07-25T11:45:32;11.55;;;7.32;;
20067;SDS011;10194;50.824;7.134;2022-07-25T11:50:36;13.40;;;7.40;;
20067;SDS011;10194;50.824;7.134;2022-07-25T11:53:09;9.57;;;7.32;;
20067;SDS011;10194;50.824;7.134;2022-07-25T11:55:42;9.25;;;7.25;;
20067;SDS011;10194;50.824;7.134;2022-07-25T11:58:09;15.50;;;7.53;;
20067;SDS011;10194;50.824;7.134;2022-07-25T12:00:41;10.07;;;7.72;;
20067;SDS011;10194;50.824;7.134;2022-07-25T12:03:12;8.85;;;6.80;;
20067;SDS011;10194;50.824;7.134;2022-07-25T12:05:41;9.45;;;6.78;;
20067;SDS011;10194;50.824;7.134;2022-07-25T12:08:15;12.30;;;7.70;;
20067;SDS011;10194;50.824;7.134;2022-07-25T12:10:45;10.95;;;7.18;;
20067;SDS011;10194;50.824;7.134;2022-07-25T12:13:22;8.23;;;6.18;;
20067;SDS011;10194;50.824;7.134;2022-07-25T12:15:49;10.90;;;6.97;;
20067;SDS011;10194;50.824;7.134;2022-07-25T12:18:16;9.98;;;6.97;;
20067;SDS011;10194;50.824;7.134;2022-07-25T12:20:42;11.45;;;7.30;;
20067;SDS011;10194;50.824;7.134;2022-07-25T12:23:10;11.18;;;7.45;;
20067;SDS011;10194;50.824;7.134;2022-07-25T12:25:37;8.27;;;6.38;;
20067;SDS011;10194;50.824;7.134;2022-07-25T12:28:08;9.88;;;6.13;;
20067;SDS011;10194;50.824;7.134;2022-07-25T12:30:35;10.25;;;6.15;;
20067;SDS011;10194;50.824;7.134;2022-07-25T12:33:03;9.60;;;5.82;;
20067;SDS011;10194;50.824;7.134;2022-07-25T12:35:29;9.38;;;6.40;;
20067;SDS011;10194;50.824;7.134;2022-07-25T12:37:55;10.75;;;6.00;;
20067;SDS011;10194;50.824;7.134;2022-07-25T12:40:21;8.30;;;5.78;;
20067;SDS011;10194;50.824;7.134;2022-07-25T12:42:48;7.00;;;5.63;;
20067;SDS011;10194;50.824;7.134;2022-07-25T12:45:14;7.90;;;4.97;;
20067;SDS011;10194;50.824;7.134;2022-07-25T12:47:45;12.45;;;5.30;;
20067;SDS011;10194;50.824;7.134;2022-07-25T12:50:13;7.43;;;5.15;;
20067;SDS011;10194;50.824;7.134;2022-07-25T12:52:40;7.00;;;4.93;;
20067;SDS011;10194;50.824;7.134;2022-07-25T12:55:08;7.20;;;4.75;;
20067;SDS011;10194;50.824;7.134;2022-07-25T12:57:37;8.20;;;4.75;;
20067;SDS011;10194;50.824;7.134;2022-07-25T13:00:04;7.80;;;5.00;;
20067;SDS011;10194;50.824;7.134;2022-07-25T13:02:33;9.30;;;5.25;;
20067;SDS011;10194;50.824;7.134;2022-07-25T13:04:58;7.28;;;4.70;;
20067;SDS011;10194;50.824;7.134;2022-07-25T13:07:24;8.25;;;4.72;;
20067;SDS011;10194;50.824;7.134;2022-07-25T13:09:50;6.28;;;4.78;;
20067;SDS011;10194;50.824;7.134;2022-07-25T13:12:16;7.85;;;4.88;;
20067;SDS011;10194;50.824;7.134;2022-07-25T13:14:42;7.50;;;4.90;;
20067;SDS011;10194;50.824;7.134;2022-07-25T13:17:08;6.75;;;5.25;;
20067;SDS011;10194;50.824;7.134;2022-07-25T13:19:34;8.27;;;5.25;;
20067;SDS011;10194;50.824;7.134;2022-07-25T13:22:00;6.82;;;4.93;;
20067;SDS011;10194;50.824;7.134;2022-07-25T13:24:26;6.60;;;5.00;;
20067;SDS011;10194;50.824;7.134;2022-07-25T13:26:52;5.90;;;5.03;;
20067;SDS011;10194;50.824;7.134;2022-07-25T13:29:18;6.13;;;5.00;;
20067;SDS011;10194;50.824;7.134;2022-07-25T13:31:44;6.28;;;4.63;;
20067;SDS011;10194;50.824;7.134;2022-07-25T13:34:09;7.93;;;4.57;;
20067;SDS011;10194;50.824;7.134;2022-07-25T13:36:36;7.82;;;4.35;;
20067;SDS011;10194;50.824;7.134;2022-07-25T13:39:03;8.57;;;4.63;;
20067;SDS011;10194;50.824;7.134;2022-07-25T13:41:30;11.43;;;5.35;;
20067;SDS011;10194;50.824;7.134;2022-07-25T13:43:56;5.03;;;4.05;;
20067;SDS011;10194;50.824;7.134;2022-07-25T13:46:22;7.22;;;4.43;;
20067;SDS011;10194;50.824;7.134;2022-07-25T13:48:48;10.45;;;4.35;;
20067;SDS011;10194;50.824;7.134;2022-07-25T13:51:14;5.82;;;4.22;;
20067;SDS011;10194;50.824;7.134;2022-07-25T13:53:40;9.80;;;4.25;;
20067;SDS011;10194;50.824;7.134;2022-07-25T13:56:06;6.85;;;3.97;;
20067;SDS011;10194;50.824;7.134;2022-07-25T13:58:32;7.55;;;3.63;;
20067;SDS011;10194;50.824;7.134;2022-07-25T14:01:00;6.72;;;3.97;;
20067;SDS011;10194;50.824;7.134;2022-07-25T14:03:26;5.57;;;3.45;;
20067;SDS011;10194;50.824;7.134;2022-07-25T14:05:52;4.35;;;3.47;;
20067;SDS011;10194;50.824;7.134;2022-07-25T14:08:18;5.00;;;3.05;;
20067;SDS011;10194;50.824;7.134;2022-07-25T14:10:44;4.63;;;3.17;;
20067;SDS011;10194;50.824;7.134;2022-07-25T14:13:10;6.15;;;2.97;;
20067;SDS011;10194;50.824;7.134;2022-07-25T14:15:37;5.40;;;3.05;;
20067;SDS011;10194;50.824;7.134;2022-07-25T14:18:03;5.90;;;2.72;;
20067;SDS011;10194;50.824;7.134;2022-07-25T14:20:29;4.05;;;2.70;;
20067;SDS011;10194;50.824;7.134;2022-07-25T14:22:55;2.95;;;2.58;;
20067;SDS011;10194;50.824;7.134;2022-07-25T14:25:20;8.13;;;3.00;;
20067;SDS011;10194;50.824;7.134;2022-07-25T14:27:46;3.25;;;2.40;;
20067;SDS011;10194;50.824;7.134;2022-07-25T14:30:12;7.40;;;2.75;;
20067;SDS011;10194;50.824;7.134;2022-07-25T14:32:38;5.20;;;2.83;;
20067;SDS011;10194;50.824;7.134;2022-07-25T14:35:04;4.60;;;2.70;;
20067;SDS011;10194;50.824;7.134;2022-07-25T14:37:31;6.53;;;2.70;;
20067;SDS011;10194;50.824;7.134;2022-07-25T14:39:57;6.40;;;2.65;;
20067;SDS011;10194;50.824;7.134;2022-07-25T14:42:24;5.65;;;2.70;;
20067;SDS011;10194;50.824;7.134;2022-07-25T14:44:50;9.95;;;2.80;;
20067;SDS011;10194;50.824;7.134;2022-07-25T14:47:16;4.00;;;2.58;;
20067;SDS011;10194;50.824;7.134;2022-07-25T14:49:42;3.78;;;2.70;;
20067;SDS011;10194;50.824;7.134;2022-07-25T14:52:08;4.40;;;2.88;;
20067;SDS011;10194;50.824;7.134;2022-07-25T14:54:35;4.60;;;3.22;;